createdAt,value
2019-02-15T00:03:31.802Z,49.90
2019-02-15T00:08:23.838Z,49.10
2019-02-15T00:13:15.645Z,49.00
2019-02-15T00:18:07.344Z,48.90
2019-02-15T00:22:59.274Z,48.50
2019-02-15T00:27:51.178Z,48.40
2019-02-15T00:32:42.924Z,48.20
2019-02-15T00:37:35.097Z,48.00
2019-02-15T00:42:27.069Z,47.10
2019-02-15T00:47:19.445Z,46.50
2019-02-15T00:52:09.271Z,45.80
2019-02-15T00:57:02.950Z,45.40
2019-02-15T01:01:51.274Z,45.60
2019-02-15T01:06:41.991Z,46.00
2019-02-15T01:11:34.070Z,46.30
2019-02-15T01:16:26.089Z,46.50
2019-02-15T01:21:17.828Z,47.00
2019-02-15T01:26:09.853Z,47.00
2019-02-15T01:31:03.536Z,47.10
2019-02-15T01:35:54.888Z,47.10
2019-02-15T01:40:46.685Z,47.20
2019-02-15T01:45:38.771Z,47.40
2019-02-15T01:50:30.870Z,47.60
2019-02-15T01:55:20.824Z,47.80
2019-02-15T02:00:11.013Z,47.90
2019-02-15T02:05:03.282Z,48.10
2019-02-15T02:09:52.834Z,48.50
2019-02-15T02:14:43.083Z,49.10
2019-02-15T02:19:35.271Z,49.30
2019-02-15T02:24:27.217Z,49.90
2019-02-15T02:29:19.266Z,49.70
2019-02-15T02:34:11.081Z,49.90
2019-02-15T02:39:03.193Z,50.40
2019-02-15T02:44:00.948Z,50.70
2019-02-15T02:48:51.405Z,50.90
2019-02-15T02:53:44.410Z,51.20
2019-02-15T02:58:36.309Z,51.50
2019-02-15T03:03:28.328Z,51.70
2019-02-15T03:08:20.229Z,51.80
2019-02-15T03:13:12.221Z,51.80
2019-02-15T03:18:04.175Z,52.10
2019-02-15T03:22:56.081Z,52.30
2019-02-15T03:27:48.097Z,52.40
2019-02-15T03:32:39.854Z,52.70
2019-02-15T03:37:31.744Z,53.30
2019-02-15T03:42:23.494Z,53.70
2019-02-15T03:47:15.550Z,53.70
2019-02-15T03:52:07.671Z,53.90
2019-02-15T03:56:59.586Z,54.10
2019-02-15T04:01:51.566Z,54.20
2019-02-15T04:06:43.356Z,54.70
2019-02-15T04:11:35.184Z,54.70
2019-02-15T04:16:27.260Z,54.80
2019-02-15T04:21:19.314Z,54.70
2019-02-15T04:26:11.144Z,55.00
2019-02-15T04:31:03.279Z,54.90
2019-02-15T04:35:55.460Z,54.90
2019-02-15T04:40:47.353Z,55.00
2019-02-15T04:45:39.183Z,54.90
2019-02-15T04:50:31.099Z,55.10
2019-02-15T04:55:23.143Z,55.30
2019-02-15T05:00:15.201Z,55.40
2019-02-15T05:05:07.438Z,55.40
2019-02-15T05:09:59.587Z,55.20
2019-02-15T05:14:54.645Z,54.90
2019-02-15T05:19:45.563Z,54.90
2019-02-15T05:24:37.385Z,54.80
2019-02-15T05:29:29.865Z,54.80
2019-02-15T05:34:21.754Z,55.10
2019-02-15T05:39:13.558Z,55.20
2019-02-15T05:44:05.599Z,55.30
2019-02-15T05:48:57.667Z,55.60
2019-02-15T05:53:49.645Z,55.80
2019-02-15T05:58:41.488Z,56.20
2019-02-15T06:03:35.426Z,56.40
2019-02-15T06:08:26.531Z,56.50
2019-02-15T06:13:18.361Z,57.20
2019-02-15T06:18:10.181Z,57.10
2019-02-15T06:23:02.254Z,58.50
2019-02-15T06:27:54.145Z,59.10
2019-02-15T06:32:45.779Z,59.30
2019-02-15T06:37:37.537Z,59.90
2019-02-15T06:42:28.818Z,60.00
2019-02-15T06:47:20.813Z,59.60
2019-02-15T06:52:12.943Z,59.60
2019-02-15T06:57:04.750Z,59.60
2019-02-15T07:01:56.467Z,59.10
2019-02-15T07:06:48.353Z,59.50
2019-02-15T07:11:40.384Z,59.70
2019-02-15T07:16:32.227Z,59.70
2019-02-15T07:21:24.020Z,59.30
2019-02-15T07:26:15.820Z,59.30
2019-02-15T07:31:07.890Z,59.70
2019-02-15T07:35:59.861Z,59.90
2019-02-15T07:40:52.022Z,59.70
2019-02-15T07:45:44.411Z,59.30
2019-02-15T07:50:36.732Z,58.20
2019-02-15T07:55:29.669Z,57.40
2019-02-15T08:00:21.647Z,56.20
2019-02-15T08:05:14.137Z,56.00
2019-02-15T08:10:07.751Z,55.30
2019-02-15T08:14:59.330Z,54.80
2019-02-15T08:19:51.352Z,53.90
2019-02-15T08:24:43.837Z,53.80
2019-02-15T08:29:36.357Z,52.80
2019-02-15T08:34:28.992Z,52.00
2019-02-15T08:39:20.908Z,50.40
2019-02-15T08:44:13.273Z,49.90
2019-02-15T08:49:05.520Z,49.30
2019-02-15T08:53:57.449Z,48.90
2019-02-15T08:58:49.674Z,48.50
2019-02-15T09:03:41.802Z,48.60
2019-02-15T09:08:33.955Z,48.60
2019-02-15T09:13:26.358Z,48.40
2019-02-15T09:18:18.489Z,48.50
2019-02-15T09:23:12.230Z,48.70
2019-02-15T09:28:04.129Z,48.80
2019-02-15T09:32:57.059Z,48.40
2019-02-15T09:37:46.799Z,48.40
2019-02-15T09:42:38.993Z,48.50
2019-02-15T09:47:31.513Z,48.60
2019-02-15T09:52:23.720Z,48.20
2019-02-15T09:57:15.934Z,48.30
2019-02-15T10:02:08.014Z,48.50
2019-02-15T10:07:00.218Z,48.30
2019-02-15T10:11:52.442Z,48.40
2019-02-15T10:16:44.962Z,47.20
2019-02-15T10:21:37.015Z,47.10
2019-02-15T10:26:29.393Z,46.50
2019-02-15T10:31:22.290Z,45.80
2019-02-15T10:36:14.879Z,45.20
2019-02-15T10:41:07.333Z,45.00
2019-02-15T10:45:59.588Z,44.30
2019-02-15T10:50:52.158Z,43.70
2019-02-15T10:55:44.320Z,43.60
2019-02-15T11:00:36.706Z,43.90
2019-02-15T11:05:29.148Z,43.80
2019-02-15T11:10:21.485Z,43.60
2019-02-15T11:15:14.489Z,43.10
2019-02-15T11:20:06.962Z,42.40
2019-02-15T11:24:59.377Z,42.20
2019-02-15T11:29:52.027Z,42.90
2019-02-15T11:34:44.815Z,42.40
2019-02-15T11:39:37.185Z,41.80
2019-02-15T11:44:29.474Z,41.90
2019-02-15T11:49:22.014Z,41.50
2019-02-15T11:54:24.235Z,40.90
2019-02-15T11:59:16.857Z,41.40
2019-02-15T12:04:08.962Z,40.50
2019-02-15T12:09:01.453Z,39.70
2019-02-15T12:13:54.434Z,40.70
2019-02-15T12:18:48.502Z,39.60
2019-02-15T12:23:40.767Z,38.60
2019-02-15T12:28:33.642Z,39.10
2019-02-15T12:33:26.393Z,39.10
2019-02-15T12:38:21.020Z,37.90
2019-02-15T12:43:13.180Z,37.40
2019-02-15T12:48:05.250Z,36.70
2019-02-15T12:52:57.717Z,36.60
2019-02-15T12:57:50.199Z,36.70
2019-02-15T13:02:42.826Z,36.40
2019-02-15T13:07:35.263Z,36.10
2019-02-15T13:12:27.729Z,35.80
2019-02-15T13:17:26.002Z,36.00
2019-02-15T13:22:21.384Z,36.50
2019-02-15T13:27:13.018Z,36.40
2019-02-15T13:32:05.646Z,35.80
2019-02-15T13:36:58.348Z,35.50
2019-02-15T13:41:50.843Z,34.70
2019-02-15T13:46:43.306Z,35.10
2019-02-15T13:51:35.948Z,34.70
2019-02-15T13:56:28.443Z,35.10
2019-02-15T14:01:20.652Z,34.50
2019-02-15T14:06:13.282Z,35.30
2019-02-15T14:11:06.015Z,35.20
2019-02-15T14:15:58.437Z,34.50
2019-02-15T14:20:50.608Z,33.40
2019-02-15T14:25:42.905Z,33.40
2019-02-15T14:30:34.825Z,33.70
2019-02-15T14:35:27.072Z,34.80
2019-02-15T14:40:18.706Z,37.20
2019-02-15T14:45:10.598Z,38.30
2019-02-15T14:50:02.467Z,38.60
2019-02-15T14:54:54.783Z,39.00
2019-02-15T14:59:46.769Z,39.40
2019-02-15T15:04:38.739Z,39.80
2019-02-15T15:09:32.714Z,40.50
2019-02-15T15:14:25.095Z,40.80
2019-02-15T15:19:17.345Z,41.20
2019-02-15T15:24:09.680Z,41.50
2019-02-15T15:29:01.819Z,40.90
2019-02-15T15:33:54.057Z,41.00
2019-02-15T15:38:46.306Z,40.30
2019-02-15T15:43:38.643Z,40.30
2019-02-15T15:54:07.657Z,40.90
2019-02-15T15:58:59.662Z,40.60
2019-02-15T16:03:51.908Z,40.70
2019-02-15T16:08:44.137Z,40.80
2019-02-15T16:13:36.214Z,40.60
2019-02-15T16:18:35.990Z,41.30
2019-02-15T16:23:27.348Z,41.60
2019-02-15T16:28:19.113Z,41.10
2019-02-15T16:33:11.866Z,42.00
2019-02-15T16:38:05.862Z,42.10
2019-02-15T16:42:57.618Z,41.50
2019-02-15T16:47:49.819Z,42.20
2019-02-15T16:52:42.068Z,42.50
2019-02-15T16:57:34.341Z,42.20
2019-02-15T17:02:26.862Z,42.20
2019-02-15T17:07:18.931Z,42.60
2019-02-15T17:12:11.162Z,42.50
2019-02-15T17:17:04.037Z,42.80
2019-02-15T17:21:55.744Z,42.60
2019-02-15T17:26:47.726Z,43.00
2019-02-15T17:31:39.784Z,43.30
2019-02-15T17:36:31.845Z,43.20
2019-02-15T17:41:23.826Z,43.20
2019-02-15T17:46:15.994Z,43.10
2019-02-15T17:51:08.131Z,43.10
2019-02-15T17:56:00.135Z,43.40
2019-02-15T18:00:52.143Z,43.70
2019-02-15T18:05:45.304Z,43.60
2019-02-15T18:10:37.253Z,43.50
2019-02-15T18:15:30.161Z,44.00
2019-02-15T18:20:22.549Z,44.10
2019-02-15T18:25:14.429Z,44.20
2019-02-15T18:30:06.427Z,44.50
2019-02-15T18:34:59.387Z,44.60
2019-02-15T18:39:51.607Z,44.30
2019-02-15T18:44:45.389Z,44.50
2019-02-15T18:49:36.940Z,44.70
2019-02-15T18:54:28.712Z,44.70
2019-02-15T18:59:20.990Z,44.60
2019-02-15T19:04:13.086Z,44.50
2019-02-15T19:09:05.103Z,44.10
2019-02-15T19:13:57.375Z,44.20
2019-02-15T19:18:49.638Z,44.30
2019-02-15T19:23:41.714Z,44.50
2019-02-15T19:28:33.562Z,44.50
2019-02-15T19:33:25.794Z,44.80
2019-02-15T19:38:18.235Z,44.80
2019-02-15T19:43:10.346Z,45.00
2019-02-15T19:48:02.599Z,45.30
2019-02-15T19:52:56.869Z,45.50
2019-02-15T19:57:48.494Z,45.60
2019-02-15T20:02:43.709Z,45.80
2019-02-15T20:07:36.074Z,45.80
2019-02-15T20:12:27.922Z,45.70
2019-02-15T20:17:20.138Z,45.90
2019-02-15T20:22:12.166Z,45.90
2019-02-15T20:27:04.338Z,45.90
2019-02-15T20:31:58.275Z,46.00
2019-02-15T20:36:49.747Z,46.00
2019-02-15T20:41:41.937Z,46.00
2019-02-15T20:46:34.155Z,46.10
2019-02-15T20:51:26.031Z,46.20
2019-02-15T20:56:18.113Z,46.30
2019-02-15T21:01:10.325Z,46.50
2019-02-15T21:06:02.447Z,46.60
2019-02-15T21:10:56.776Z,46.80
2019-02-15T21:15:48.529Z,47.00
2019-02-15T21:20:40.956Z,47.20
2019-02-15T21:25:33.289Z,47.40
2019-02-15T21:30:25.315Z,47.70
2019-02-15T21:35:17.431Z,48.00
2019-02-15T21:40:09.632Z,48.40
2019-02-15T21:45:01.808Z,48.70
2019-02-15T21:49:54.201Z,49.00
2019-02-15T21:54:46.138Z,49.20
2019-02-15T21:59:38.222Z,49.50
2019-02-15T22:04:29.970Z,49.60
2019-02-15T22:09:21.877Z,49.90
2019-02-15T22:14:14.068Z,49.90
2019-02-15T22:19:05.946Z,50.20
2019-02-15T22:23:58.201Z,50.50
2019-02-15T22:28:50.896Z,50.90
2019-02-15T22:33:42.937Z,51.00
2019-02-15T22:38:34.834Z,51.30
2019-02-15T22:43:27.462Z,51.40
2019-02-15T22:48:19.162Z,51.70
2019-02-15T22:53:11.183Z,52.00
2019-02-15T22:58:05.425Z,52.30
2019-02-15T23:02:56.854Z,52.50
2019-02-15T23:07:48.609Z,52.60
2019-02-15T23:12:42.868Z,52.80
2019-02-15T23:17:34.368Z,53.00
2019-02-15T23:22:26.246Z,53.20
2019-02-15T23:27:18.328Z,53.40
2019-02-15T23:32:10.230Z,53.70
2019-02-15T23:37:04.649Z,53.90
2019-02-15T23:41:56.198Z,55.20
2019-02-15T23:46:48.487Z,55.10
2019-02-15T23:51:40.606Z,55.20
2019-02-15T23:56:32.766Z,55.40
